Terminal Aerodrome Forecast
Issued by NWS

Home | Current Version | Previous Version | Text Only | Print | Product List | Glossary On
Versions: 1 2 3 4 5 6 7 8 9 10 11 12 13
000
FTUS42 KTBW 220000 AAA
TAFPIE
TAF AMD
KPIE 220005Z 2200/2224 VRB12G22KT P6SM VCTS SCT030CB SCT250
     FM220100 VRB06KT P6SM FEW035 SCT250
     FM221800 33005KT P6SM VCTS FEW035CB SCT250
     FM222100 31007KT P6SM VCTS SCT035CB BKN250=

USA.gov is the U.S. government's official web portal to all federal, state and local government web resources and services.